Time;durP1;ratioP1;P1;durP2;ratioP2;P2;SDS_P1;SDS_P2;PMS_P1;PMS_P2;Temp;Humidity;BMP_temperature;BMP_pressure;BME280_temperature;BME280_humidity;BME280_pressure;Samples;Min_cycle;Max_cycle;Signal;HPM_P1;HPM_P2
2021/10/22 00:01:37;;;;;;;2.22;1.00;;;21.70;54.80;;;;;;4991354;28;20763;-59
2021/10/22 00:04:03;;;;;;;2.13;0.90;;;21.70;54.90;;;;;;4982651;28;20092;-59
2021/10/22 00:06:30;;;;;;;3.25;1.00;;;21.70;54.80;;;;;;4988759;28;20084;-53
2021/10/22 00:08:55;;;;;;;2.17;0.93;;;21.60;54.80;;;;;;4989465;28;20629;-52
2021/10/22 00:11:21;;;;;;;2.72;1.10;;;21.70;54.80;;;;;;4988951;28;20112;-55
2021/10/22 00:13:46;;;;;;;1.83;0.80;;;21.70;54.90;;;;;;4991387;28;20341;-56
2021/10/22 00:16:12;;;;;;;2.28;0.80;;;21.60;54.80;;;;;;4986468;28;20192;-54
2021/10/22 00:18:38;;;;;;;1.33;0.80;;;21.60;54.80;;;;;;4985451;28;20514;-59
2021/10/22 00:21:03;;;;;;;2.15;0.93;;;21.60;55.40;;;;;;4986912;28;20026;-54
2021/10/22 00:23:29;;;;;;;1.67;0.85;;;21.60;54.90;;;;;;4988163;28;20105;-51
2021/10/22 00:25:55;;;;;;;2.38;1.00;;;21.60;54.90;;;;;;4986667;28;20034;-53
2021/10/22 00:28:20;;;;;;;1.80;0.95;;;21.60;54.90;;;;;;4990319;28;20022;-55
2021/10/22 00:30:46;;;;;;;2.40;0.90;;;21.60;54.90;;;;;;4990519;28;20030;-50
2021/10/22 00:33:12;;;;;;;1.95;1.00;;;21.60;54.90;;;;;;4989570;28;20112;-57
2021/10/22 00:35:37;;;;;;;1.42;0.80;;;21.60;54.90;;;;;;4986342;28;20026;-59
2021/10/22 00:38:03;;;;;;;1.30;0.80;;;21.60;54.90;;;;;;4989383;28;20046;-54
2021/10/22 00:40:29;;;;;;;1.52;0.95;;;21.60;54.90;;;;;;4989060;28;20022;-60
2021/10/22 00:42:56;;;;;;;1.83;0.90;;;21.60;54.90;;;;;;4986555;28;20026;-58
2021/10/22 00:45:22;;;;;;;2.53;0.80;;;21.60;54.90;;;;;;4989907;28;20030;-59
2021/10/22 00:47:49;;;;;;;1.48;0.85;;;21.60;55.00;;;;;;4987055;28;20103;-53
2021/10/22 00:50:15;;;;;;;1.60;0.90;;;21.50;54.90;;;;;;4985392;28;20034;-54
2021/10/22 00:52:44;;;;;;;2.03;0.70;;;21.50;54.90;;;;;;4978193;28;20034;-57
2021/10/22 00:55:11;;;;;;;2.03;1.00;;;21.50;54.90;;;;;;4984424;28;20415;-54
2021/10/22 00:57:39;;;;;;;1.70;0.80;;;21.50;54.90;;;;;;4987864;28;20040;-58
2021/10/22 01:00:06;;;;;;;1.92;0.90;;;21.50;54.90;;;;;;4990639;28;20038;-50
2021/10/22 01:02:36;;;;;;;1.50;0.75;;;21.50;54.90;;;;;;4985985;28;20121;-57
2021/10/22 01:05:02;;;;;;;;;;;21.50;55.00;;;;;;4982766;28;20083;-57
2021/10/22 01:07:27;;;;;;;1.92;0.93;;;21.50;55.00;;;;;;4995228;28;20322;-56
2021/10/22 01:09:53;;;;;;;1.30;0.75;;;21.50;55.00;;;;;;4993863;28;20056;-57
2021/10/22 01:12:19;;;;;;;1.75;0.90;;;21.50;55.00;;;;;;4983505;28;20351;-50
2021/10/22 01:14:45;;;;;;;1.52;0.80;;;21.50;55.00;;;;;;4990574;28;20046;-54
2021/10/22 01:17:34;;;;;;;1.48;0.70;;;21.50;55.00;;;;;;4987348;28;20026;-54
2021/10/22 01:19:59;;;;;;;1.90;0.85;;;21.50;55.00;;;;;;4989023;28;20069;-58
2021/10/22 01:22:25;;;;;;;2.72;0.90;;;21.40;55.00;;;;;;4986142;28;20100;-59
2021/10/22 01:24:50;;;;;;;2.05;0.90;;;21.40;55.00;;;;;;4989813;28;20801;-54
2021/10/22 01:27:17;;;;;;;2.72;1.00;;;21.50;55.10;;;;;;4988163;28;20026;-53
2021/10/22 01:29:42;;;;;;;1.98;0.90;;;21.40;55.00;;;;;;4990086;28;20509;-54
2021/10/22 01:32:08;;;;;;;3.40;0.90;;;21.40;55.00;;;;;;4985209;28;20045;-54
2021/10/22 01:34:34;;;;;;;1.65;0.90;;;21.40;55.00;;;;;;4987805;28;20074;-56
2021/10/22 01:37:00;;;;;;;1.63;0.82;;;21.40;55.00;;;;;;4976799;28;20058;-55
2021/10/22 01:39:25;;;;;;;1.63;0.80;;;21.40;55.00;;;;;;4985956;28;20101;-56
2021/10/22 01:41:52;;;;;;;1.30;0.80;;;21.50;55.10;;;;;;4981682;28;20034;-56
2021/10/22 01:44:23;;;;;;;1.65;0.80;;;21.40;55.00;;;;;;4979250;28;20034;-57
2021/10/22 01:46:48;;;;;;;1.83;0.80;;;21.40;55.00;;;;;;4981458;28;20555;-54
2021/10/22 01:49:14;;;;;;;1.38;0.80;;;21.40;55.00;;;;;;4988998;28;20042;-56
2021/10/22 01:51:40;;;;;;;1.98;0.85;;;21.40;55.10;;;;;;4988844;28;20045;-54
2021/10/22 01:54:06;;;;;;;1.17;0.80;;;21.40;55.10;;;;;;4977965;28;20038;-53
2021/10/22 01:56:31;;;;;;;1.63;0.90;;;21.40;55.10;;;;;;4992215;28;20378;-52
2021/10/22 01:58:57;;;;;;;1.20;0.70;;;21.40;55.10;;;;;;4991712;28;20030;-57
2021/10/22 02:01:23;;;;;;;1.10;0.73;;;21.40;55.10;;;;;;4995746;28;20037;-55
2021/10/22 02:03:49;;;;;;;1.80;0.90;;;21.30;55.00;;;;;;4989744;28;20041;-56
2021/10/22 02:06:14;;;;;;;1.42;0.80;;;21.30;55.10;;;;;;4987803;28;20113;-55
2021/10/22 02:08:40;;;;;;;2.00;0.90;;;21.30;55.10;;;;;;4978398;28;20507;-56
2021/10/22 02:11:05;;;;;;;1.55;0.80;;;21.40;55.10;;;;;;4983315;28;20031;-56
2021/10/22 02:13:31;;;;;;;1.55;1.00;;;21.30;55.10;;;;;;4988999;28;20030;-55
2021/10/22 02:15:57;;;;;;;1.73;0.82;;;21.30;55.10;;;;;;4978735;28;20161;-59
2021/10/22 02:18:23;;;;;;;1.17;0.82;;;21.30;55.10;;;;;;4981271;28;20038;-56
2021/10/22 02:20:48;;;;;;;1.88;0.80;;;21.30;55.10;;;;;;4985299;28;20106;-52
2021/10/22 02:23:14;;;;;;;1.40;0.80;;;21.30;55.10;;;;;;4986958;28;20037;-52
2021/10/22 02:25:40;;;;;;;1.27;0.80;;;21.30;55.10;;;;;;4990808;28;20037;-60
2021/10/22 02:28:06;;;;;;;1.10;0.80;;;21.30;55.10;;;;;;4988707;28;20018;-53
2021/10/22 02:30:32;;;;;;;1.52;0.70;;;21.30;55.10;;;;;;4988105;28;20030;-60
2021/10/22 02:32:58;;;;;;;1.08;0.73;;;21.30;55.20;;;;;;4989021;28;20038;-57
2021/10/22 02:35:24;;;;;;;1.33;0.77;;;21.30;55.10;;;;;;4986617;28;20034;-58
2021/10/22 02:37:49;;;;;;;1.15;0.80;;;21.30;55.10;;;;;;4985513;28;20371;-56
2021/10/22 02:40:16;;;;;;;1.30;0.90;;;21.30;55.10;;;;;;4981143;28;20117;-59
2021/10/22 02:42:42;;;;;;;1.30;0.90;;;21.30;55.10;;;;;;4988621;28;20061;-48
2021/10/22 02:45:08;;;;;;;1.40;0.90;;;21.30;55.20;;;;;;4988972;28;20084;-52
2021/10/22 02:47:34;;;;;;;1.60;0.80;;;21.30;55.20;;;;;;4985467;28;20391;-52
2021/10/22 02:49:59;;;;;;;0.90;0.73;;;21.30;55.20;;;;;;4982827;28;20038;-55
2021/10/22 02:52:25;;;;;;;1.42;0.80;;;21.20;55.10;;;;;;4983750;28;20122;-57
2021/10/22 02:54:51;;;;;;;1.23;0.63;;;21.20;55.20;;;;;;4979148;28;20372;-54
2021/10/22 02:57:17;;;;;;;1.15;0.70;;;21.20;55.20;;;;;;4987809;28;20031;-56
2021/10/22 02:59:42;;;;;;;0.82;0.70;;;21.20;55.10;;;;;;4985768;28;20418;-56
2021/10/22 03:02:08;;;;;;;1.23;0.80;;;21.20;55.10;;;;;;4986946;28;20085;-54
2021/10/22 03:04:34;;;;;;;0.98;0.60;;;21.20;55.20;;;;;;4987877;28;20057;-55
2021/10/22 03:06:59;;;;;;;1.35;0.90;;;21.20;55.10;;;;;;4985117;28;20034;-53
2021/10/22 03:09:25;;;;;;;0.93;0.70;;;21.20;55.10;;;;;;4983063;28;20022;-53
2021/10/22 03:11:51;;;;;;;1.65;1.20;;;21.20;55.20;;;;;;4987170;28;20450;-56
2021/10/22 03:14:16;;;;;;;1.23;0.70;;;21.20;55.20;;;;;;4985104;28;20431;-51
2021/10/22 03:16:43;;;;;;;1.60;1.00;;;21.20;55.20;;;;;;4987159;28;20030;-51
2021/10/22 03:19:11;;;;;;;1.40;0.80;;;21.20;55.20;;;;;;4987304;28;20165;-55
2021/10/22 03:21:39;;;;;;;1.08;0.70;;;21.20;55.20;;;;;;4987821;28;20029;-59
2021/10/22 03:24:05;;;;;;;1.00;0.70;;;21.20;55.20;;;;;;4981156;28;20176;-54
2021/10/22 03:26:31;;;;;;;1.15;0.75;;;21.10;55.10;;;;;;4986586;28;20015;-55
2021/10/22 03:28:56;;;;;;;1.45;0.80;;;21.10;55.20;;;;;;4986169;28;20023;-59
2021/10/22 03:31:22;;;;;;;1.10;0.70;;;21.20;55.20;;;;;;4986476;28;20035;-59
2021/10/22 03:33:48;;;;;;;0.95;0.70;;;21.20;55.20;;;;;;4985436;28;20041;-56
2021/10/22 03:36:13;;;;;;;0.95;0.60;;;21.20;55.20;;;;;;4981139;28;20034;-50
2021/10/22 03:38:39;;;;;;;0.98;0.70;;;21.20;55.20;;;;;;4984389;28;20073;-55
2021/10/22 03:41:05;;;;;;;1.63;1.00;;;21.20;55.20;;;;;;4982963;28;20427;-59
2021/10/22 03:43:33;;;;;;;0.88;0.60;;;21.20;55.20;;;;;;4982052;28;20048;-55
2021/10/22 03:45:59;;;;;;;1.10;0.70;;;21.20;55.20;;;;;;4987243;28;20031;-58
2021/10/22 03:48:24;;;;;;;1.45;0.90;;;21.10;55.10;;;;;;4982636;28;20030;-59
2021/10/22 03:50:50;;;;;;;1.00;0.70;;;21.10;55.10;;;;;;4977916;28;20030;-51
2021/10/22 03:53:16;;;;;;;0.82;0.70;;;21.20;55.10;;;;;;4992748;28;20038;-60
2021/10/22 03:55:41;;;;;;;1.20;0.80;;;21.10;55.10;;;;;;4990649;28;20019;-56
2021/10/22 03:58:07;;;;;;;1.23;0.80;;;21.10;55.10;;;;;;4986837;28;20051;-53
2021/10/22 04:00:32;;;;;;;0.98;0.70;;;21.20;55.10;;;;;;4984657;28;20039;-55
2021/10/22 04:02:58;;;;;;;1.20;0.70;;;21.10;55.00;;;;;;4986428;28;20344;-53
2021/10/22 04:05:24;;;;;;;1.02;0.80;;;21.20;55.10;;;;;;4984937;28;20038;-56
2021/10/22 04:07:49;;;;;;;0.80;0.65;;;21.20;55.10;;;;;;4983230;28;20034;-56
2021/10/22 04:10:15;;;;;;;0.73;0.57;;;21.10;55.00;;;;;;4985443;28;20062;-55
2021/10/22 04:12:40;;;;;;;1.13;0.63;;;21.10;55.00;;;;;;4980349;28;20026;-56
2021/10/22 04:15:07;;;;;;;1.50;0.80;;;21.10;55.00;;;;;;4991476;28;20399;-51
2021/10/22 04:17:32;;;;;;;1.35;0.70;;;21.10;55.00;;;;;;4975404;28;20154;-55
2021/10/22 04:19:58;;;;;;;1.52;0.80;;;21.10;55.00;;;;;;4975472;28;20042;-54
2021/10/22 04:22:23;;;;;;;0.70;0.63;;;21.10;55.00;;;;;;4981289;28;20027;-54
2021/10/22 04:24:49;;;;;;;1.42;0.63;;;21.10;55.00;;;;;;4985064;28;20030;-55
2021/10/22 04:27:15;;;;;;;1.30;0.70;;;21.10;55.00;;;;;;4977863;28;20053;-56
2021/10/22 04:29:42;;;;;;;0.68;0.43;;;21.10;55.00;;;;;;4984997;28;20081;-54
2021/10/22 04:32:07;;;;;;;1.15;0.70;;;21.10;55.00;;;;;;4980335;28;20074;-60
2021/10/22 04:34:34;;;;;;;1.00;0.70;;;21.10;55.00;;;;;;4987299;28;20038;-58
2021/10/22 04:37:47;;;;;;;0.80;0.68;;;21.10;55.00;;;;;;4980152;28;20058;-55
2021/10/22 04:42:42;;;;;;;0.77;0.63;;;21.10;55.00;;;;;;4984956;28;20073;-56
2021/10/22 04:45:09;;;;;;;0.85;0.65;;;21.10;55.00;;;;;;4980082;28;20073;-58
2021/10/22 04:47:35;;;;;;;0.95;0.70;;;21.10;55.00;;;;;;4988129;28;20410;-52
2021/10/22 04:50:02;;;;;;;0.85;0.57;;;21.10;55.00;;;;;;4988955;28;20105;-53
2021/10/22 04:52:28;;;;;;;0.98;0.60;;;21.10;55.00;;;;;;4987438;28;20049;-60
2021/10/22 04:54:53;;;;;;;1.13;0.60;;;21.10;55.10;;;;;;4988744;28;20034;-59
2021/10/22 04:57:19;;;;;;;0.77;0.60;;;21.10;55.10;;;;;;4990148;28;20117;-55
2021/10/22 04:59:44;;;;;;;1.05;0.70;;;21.10;55.60;;;;;;4985224;28;20033;-55
2021/10/22 05:02:10;;;;;;;0.93;0.70;;;21.10;55.10;;;;;;4987677;28;20062;-59
2021/10/22 05:04:35;;;;;;;1.05;0.70;;;21.10;55.20;;;;;;4990993;28;20439;-59
2021/10/22 05:07:01;;;;;;;0.50;0.50;;;21.10;55.10;;;;;;4985934;28;20026;-59
2021/10/22 05:09:27;;;;;;;0.82;0.60;;;21.10;55.20;;;;;;4985798;28;20034;-55
2021/10/22 05:11:53;;;;;;;0.73;0.60;;;21.10;55.20;;;;;;4986319;28;20027;-56
2021/10/22 05:14:19;;;;;;;1.10;0.70;;;21.00;55.10;;;;;;4986888;28;20092;-59
2021/10/22 05:16:44;;;;;;;1.23;0.68;;;21.10;55.20;;;;;;4993691;28;20026;-56
2021/10/22 05:19:10;;;;;;;1.25;0.70;;;21.10;55.20;;;;;;4984384;28;20054;-58
2021/10/22 05:21:36;;;;;;;1.75;0.90;;;21.10;55.30;;;;;;4978747;28;20066;-54
2021/10/22 05:24:01;;;;;;;1.60;0.80;;;21.10;56.50;;;;;;4989534;28;20034;-51
2021/10/22 05:26:27;;;;;;;2.17;0.90;;;21.20;55.80;;;;;;4987865;28;20442;-56
2021/10/22 05:28:52;;;;;;;1.40;0.80;;;21.30;55.60;;;;;;4989397;28;20042;-57
2021/10/22 05:31:18;;;;;;;1.30;0.85;;;21.50;55.40;;;;;;4988121;28;20042;-54
2021/10/22 05:33:43;;;;;;;1.40;0.60;;;21.50;55.00;;;;;;4988208;28;20022;-54
2021/10/22 05:36:09;;;;;;;0.88;0.60;;;21.60;54.70;;;;;;4986288;28;20043;-59
2021/10/22 05:38:35;;;;;;;1.27;0.63;;;21.60;54.70;;;;;;4987894;28;20034;-57
2021/10/22 05:41:00;;;;;;;1.77;0.68;;;21.50;54.70;;;;;;4987219;28;20039;-54
2021/10/22 05:43:26;;;;;;;1.95;0.80;;;21.60;54.80;;;;;;4986976;28;20102;-56
2021/10/22 05:45:51;;;;;;;1.60;0.77;;;21.60;55.00;;;;;;4989974;28;20097;-55
2021/10/22 05:48:17;;;;;;;1.00;0.60;;;21.70;54.80;;;;;;4991552;28;20353;-55
2021/10/22 05:50:42;;;;;;;0.85;0.60;;;21.70;54.40;;;;;;4980595;28;20105;-58
2021/10/22 05:53:08;;;;;;;1.63;0.82;;;21.80;54.40;;;;;;4990550;28;20035;-56
2021/10/22 05:55:34;;;;;;;1.27;0.60;;;21.80;54.40;;;;;;4985042;28;20026;-57
2021/10/22 05:57:59;;;;;;;1.23;0.80;;;21.80;54.40;;;;;;4991680;28;20050;-59
2021/10/22 06:00:25;;;;;;;1.60;0.90;;;21.80;55.30;;;;;;4982624;28;20411;-59
2021/10/22 06:02:53;;;;;;;2.15;0.80;;;22.00;55.40;;;;;;4991197;28;20030;-57
2021/10/22 06:05:19;;;;;;;1.73;0.85;;;22.30;55.30;;;;;;4982268;28;20398;-57
2021/10/22 06:07:44;;;;;;;0.80;0.70;;;22.40;55.30;;;;;;4976891;28;20023;-58
2021/10/22 06:10:10;;;;;;;1.15;0.70;;;22.50;55.10;;;;;;4983317;28;20043;-60
2021/10/22 06:12:35;;;;;;;1.10;0.50;;;22.50;55.00;;;;;;4989181;28;20030;-55
2021/10/22 06:15:03;;;;;;;0.63;0.40;;;22.50;56.00;;;;;;4985606;28;20083;-49
2021/10/22 06:17:29;;;;;;;0.60;0.47;;;22.50;55.60;;;;;;4979581;28;20031;-56
2021/10/22 06:19:57;;;;;;;1.27;0.70;;;22.50;55.50;;;;;;4987279;28;20376;-58
2021/10/22 06:25:00;;;;;;;1.15;0.50;;;22.50;55.70;;;;;;4975021;28;20058;-54
2021/10/22 06:27:27;;;;;;;0.73;0.50;;;22.50;55.80;;;;;;4992200;28;20065;-58
2021/10/22 06:29:52;;;;;;;2.05;0.70;;;22.50;55.60;;;;;;4991134;28;20038;-57
2021/10/22 06:32:18;;;;;;;0.82;0.60;;;22.60;55.70;;;;;;4984309;28;20052;-59
2021/10/22 06:34:44;;;;;;;1.25;0.70;;;22.60;55.70;;;;;;4976750;28;20033;-59
2021/10/22 06:37:09;;;;;;;0.95;0.57;;;22.60;56.10;;;;;;4983581;28;20436;-58
2021/10/22 06:39:35;;;;;;;3.03;0.70;;;22.60;55.80;;;;;;4982824;28;20088;-57
2021/10/22 06:42:00;;;;;;;0.70;0.60;;;22.60;56.00;;;;;;4988628;28;20120;-56
2021/10/22 06:44:27;;;;;;;2.17;0.70;;;22.70;56.50;;;;;;4987795;28;20026;-56
2021/10/22 06:46:55;;;;;;;1.10;0.50;;;22.70;56.40;;;;;;4975936;28;20041;-58
2021/10/22 06:49:21;;;;;;;1.73;0.60;;;22.80;57.00;;;;;;4986795;28;20038;-60
2021/10/22 06:51:47;;;;;;;0.85;0.50;;;22.80;57.10;;;;;;4986434;28;20133;-54
2021/10/22 06:54:12;;;;;;;2.15;1.00;;;22.80;57.20;;;;;;4984794;28;20100;-55
2021/10/22 06:56:38;;;;;;;0.73;0.60;;;22.90;57.60;;;;;;4976887;28;20050;-55
2021/10/22 06:59:04;;;;;;;1.15;0.60;;;22.90;57.70;;;;;;4988236;28;20586;-58
2021/10/22 07:01:30;;;;;;;1.75;0.70;;;22.90;58.30;;;;;;4987130;28;20041;-56
2021/10/22 07:03:56;;;;;;;1.38;0.60;;;23.00;58.20;;;;;;4986031;28;20571;-57
2021/10/22 07:09:05;;;;;;;0.85;0.50;;;23.00;57.70;;;;;;4983259;28;20036;-56
2021/10/22 07:11:31;;;;;;;2.65;0.70;;;23.10;57.40;;;;;;4987875;28;20487;-58
2021/10/22 07:13:59;;;;;;;1.67;0.65;;;23.10;57.20;;;;;;4989886;28;20125;-61
2021/10/22 07:16:27;;;;;;;0.60;0.50;;;23.10;57.20;;;;;;4986588;28;20039;-56
2021/10/22 07:18:53;;;;;;;2.30;0.50;;;23.10;57.20;;;;;;4985214;28;20689;-55
2021/10/22 07:21:19;;;;;;;0.90;0.70;;;23.10;57.30;;;;;;4983471;28;20038;-58
2021/10/22 07:23:48;;;;;;;1.73;0.60;;;23.10;57.20;;;;;;4983888;28;20028;-58
2021/10/22 07:26:16;;;;;;;0.73;0.60;;;23.20;58.00;;;;;;4977197;28;20106;-61
2021/10/22 07:28:42;;;;;;;0.55;0.50;;;23.20;58.50;;;;;;4976970;28;20278;-57
2021/10/22 07:31:11;;;;;;;0.50;0.40;;;23.20;58.80;;;;;;4976982;28;20050;-54
2021/10/22 07:33:41;;;;;;;1.13;0.60;;;23.30;59.40;;;;;;4982493;28;20018;-60
2021/10/22 07:36:11;;;;;;;3.30;0.47;;;23.30;58.50;;;;;;4987407;28;20031;-57
2021/10/22 07:38:37;;;;;;;1.17;0.50;;;23.40;59.60;;;;;;4985163;28;20021;-56
2021/10/22 07:41:04;;;;;;;1.90;0.68;;;23.40;59.30;;;;;;4975552;28;20027;-60
2021/10/22 07:43:30;;;;;;;0.95;0.60;;;23.50;58.90;;;;;;4979370;28;20018;-53
2021/10/22 07:45:58;;;;;;;2.33;0.63;;;23.40;58.50;;;;;;4977649;28;20027;-57
2021/10/22 07:48:23;;;;;;;2.13;1.02;;;23.50;58.60;;;;;;4979723;28;20536;-60
2021/10/22 07:50:50;;;;;;;1.33;0.60;;;23.50;59.50;;;;;;4975789;28;20042;-57
2021/10/22 07:53:16;;;;;;;1.38;0.60;;;23.50;59.50;;;;;;4985177;28;20488;-58
2021/10/22 07:55:43;;;;;;;1.98;0.50;;;23.60;59.90;;;;;;4985411;28;20034;-53
2021/10/22 07:58:08;;;;;;;1.48;0.60;;;23.60;59.20;;;;;;4983778;28;20501;-56
2021/10/22 08:00:34;;;;;;;1.10;0.60;;;23.70;58.50;;;;;;4982224;28;20050;-57
2021/10/22 08:03:00;;;;;;;1.08;0.60;;;23.60;55.50;;;;;;4981378;28;20116;-59
2021/10/22 08:05:26;;;;;;;1.52;0.60;;;23.60;54.50;;;;;;4993009;28;20022;-55
2021/10/22 08:07:51;;;;;;;1.52;0.82;;;23.60;54.20;;;;;;4986791;28;20034;-58
2021/10/22 08:10:18;;;;;;;1.77;0.60;;;23.50;53.90;;;;;;4981572;28;20355;-59
2021/10/22 08:12:46;;;;;;;1.95;0.75;;;23.50;53.50;;;;;;4988070;28;20595;-55
2021/10/22 08:15:12;;;;;;;3.63;0.60;;;23.50;53.30;;;;;;4981600;28;20517;-53
2021/10/22 08:17:37;;;;;;;1.58;0.80;;;23.60;53.50;;;;;;4985808;28;20033;-56
2021/10/22 08:20:08;;;;;;;1.80;0.90;;;23.60;53.50;;;;;;4984801;28;20122;-60
2021/10/22 08:22:33;;;;;;;1.70;0.90;;;23.60;53.30;;;;;;4977912;28;20130;-55
2021/10/22 08:25:04;;;;;;;1.70;1.08;;;23.60;53.00;;;;;;4988615;28;20053;-56
2021/10/22 08:27:36;;;;;;;3.55;1.10;;;23.60;52.70;;;;;;4980807;28;20488;-59
2021/10/22 08:30:05;;;;;;;2.45;1.13;;;23.50;52.90;;;;;;4985683;28;20848;-55
2021/10/22 08:32:31;;;;;;;2.65;1.23;;;23.50;52.80;;;;;;4981936;28;20130;-55
2021/10/22 08:34:57;;;;;;;2.95;1.20;;;23.50;52.80;;;;;;4980995;28;20043;-60
2021/10/22 08:37:24;;;;;;;2.50;1.30;;;23.50;52.60;;;;;;4982677;28;20057;-57
2021/10/22 08:39:52;;;;;;;2.58;1.30;;;23.50;52.40;;;;;;4984578;28;20081;-60
2021/10/22 08:42:21;;;;;;;3.53;1.65;;;23.50;52.00;;;;;;4985855;28;20035;-56
2021/10/22 08:44:47;;;;;;;3.45;1.25;;;23.50;51.80;;;;;;4985663;28;20501;-57
2021/10/22 08:47:13;;;;;;;2.58;1.20;;;23.60;51.80;;;;;;4990332;28;20035;-56
2021/10/22 08:49:38;;;;;;;3.15;1.50;;;23.50;51.60;;;;;;4987152;28;20117;-60
2021/10/22 08:52:06;;;;;;;2.88;1.58;;;23.50;51.50;;;;;;4995336;28;20113;-56
2021/10/22 08:54:36;;;;;;;2.10;1.10;;;23.50;51.40;;;;;;4995204;28;20129;-53
2021/10/22 08:57:03;;;;;;;2.80;1.20;;;23.50;51.30;;;;;;4984626;28;20157;-56
2021/10/22 08:59:29;;;;;;;3.60;1.40;;;23.50;51.30;;;;;;4990674;28;20487;-53
2021/10/22 09:02:15;;;;;;;2.35;1.30;;;23.50;51.20;;;;;;4980154;28;20121;-56
2021/10/22 09:04:45;;;;;;;2.50;1.30;;;23.50;51.20;;;;;;4986510;28;20034;-55
2021/10/22 09:07:16;;;;;;;4.75;1.40;;;23.60;51.60;;;;;;4979633;28;20388;-56
2021/10/22 09:09:44;;;;;;;2.15;1.10;;;23.50;51.20;;;;;;4984367;28;20034;-53
2021/10/22 09:12:11;;;;;;;2.75;1.40;;;23.60;51.30;;;;;;4985164;28;20034;-58
2021/10/22 09:14:38;;;;;;;2.53;1.27;;;23.60;51.30;;;;;;4983304;28;20706;-61
2021/10/22 09:17:13;;;;;;;3.53;1.70;;;23.60;51.30;;;;;;4982835;28;20026;-60
2021/10/22 09:19:44;;;;;;;3.53;1.40;;;23.50;51.10;;;;;;4985312;28;20089;-61
2021/10/22 09:22:47;;;;;;;2.42;1.23;;;23.60;51.20;;;;;;4994328;28;20112;-56
2021/10/22 09:25:17;;;;;;;2.17;1.20;;;23.50;51.10;;;;;;4983222;28;20046;-61
2021/10/22 09:27:49;;;;;;;2.35;1.30;;;23.60;51.10;;;;;;4981140;28;20034;-57
2021/10/22 09:30:24;;;;;;;3.50;1.50;;;23.50;51.10;;;;;;4985961;28;20042;-55
2021/10/22 09:32:51;;;;;;;2.45;1.27;;;23.60;51.20;;;;;;4982402;28;20678;-54
2021/10/22 09:35:33;;;;;;;3.28;1.50;;;23.50;51.00;;;;;;4985908;28;20458;-58
2021/10/22 09:38:20;;;;;;;3.70;1.30;;;23.60;50.80;;;;;;4975401;28;20515;-53
2021/10/22 09:41:07;;;;;;;3.25;1.45;;;23.60;50.70;;;;;;4980071;28;20033;-56
2021/10/22 09:43:42;;;;;;;4.95;1.40;;;23.60;50.70;;;;;;4985819;28;20022;-56
2021/10/22 09:46:21;;;;;;;2.97;1.40;;;23.60;50.60;;;;;;4984592;28;20034;-55
2021/10/22 09:48:57;;;;;;;2.80;1.20;;;23.50;50.50;;;;;;4989483;28;20460;-50
2021/10/22 09:51:26;;;;;;;2.25;1.30;;;23.50;50.50;;;;;;4982583;28;20813;-50
2021/10/22 09:53:53;;;;;;;3.75;1.55;;;23.50;50.40;;;;;;4987061;28;20030;-53
2021/10/22 09:56:27;;;;;;;4.57;1.58;;;23.50;50.30;;;;;;4992960;28;20027;-61
2021/10/22 09:58:58;;;;;;;2.75;1.17;;;23.50;50.40;;;;;;4994210;28;20045;-56
2021/10/22 10:01:43;;;;;;;3.45;1.60;;;23.50;50.60;;;;;;4978125;28;20088;-53
2021/10/22 10:04:16;;;;;;;2.80;1.48;;;23.50;50.50;;;;;;4978478;28;20045;-52
2021/10/22 10:06:43;;;;;;;3.45;1.40;;;23.50;51.00;;;;;;4985573;28;20142;-52
2021/10/22 10:09:10;;;;;;;3.28;1.20;;;23.60;50.50;;;;;;4979592;28;20030;-48
2021/10/22 10:11:38;;;;;;;2.22;1.10;;;23.60;50.50;;;;;;4981167;28;20042;-59
2021/10/22 10:14:03;;;;;;;2.47;1.30;;;23.50;50.50;;;;;;4980409;28;20031;-60
2021/10/22 10:16:30;;;;;;;2.78;1.40;;;23.50;50.60;;;;;;4976152;28;20523;-57
2021/10/22 10:18:56;;;;;;;3.28;1.48;;;23.50;50.50;;;;;;4977635;28;20031;-59
2021/10/22 10:21:25;;;;;;;2.78;1.20;;;23.60;50.60;;;;;;4982853;28;20312;-58
2021/10/22 10:23:52;;;;;;;3.78;1.50;;;23.60;50.50;;;;;;4981337;28;20677;-60
2021/10/22 10:26:31;;;;;;;2.72;1.30;;;23.60;50.50;;;;;;4980333;28;20362;-52
2021/10/22 10:28:59;;;;;;;2.15;1.20;;;23.50;50.40;;;;;;4981695;28;20084;-59
2021/10/22 10:31:36;;;;;;;2.88;1.40;;;23.60;50.40;;;;;;4984943;28;20085;-58
2021/10/22 10:34:31;;;;;;;2.75;1.20;;;23.60;50.40;;;;;;4976800;28;20037;-59
2021/10/22 10:37:02;;;;;;;3.47;1.35;;;23.60;50.40;;;;;;4986446;28;20050;-59
2021/10/22 10:39:46;;;;;;;4.65;1.60;;;23.50;50.30;;;;;;4980983;28;20065;-58
2021/10/22 10:42:30;;;;;;;3.05;1.30;;;23.50;50.30;;;;;;4988762;28;20077;-53
2021/10/22 10:44:57;;;;;;;3.80;1.20;;;23.50;50.40;;;;;;4991481;28;20038;-59
2021/10/22 10:47:34;;;;;;;2.92;1.38;;;23.60;50.40;;;;;;4989119;28;20030;-53
2021/10/22 10:50:01;;;;;;;3.38;1.42;;;23.50;50.40;;;;;;4991147;28;20034;-53
2021/10/22 10:52:39;;;;;;;2.03;1.13;;;23.50;50.40;;;;;;4985541;28;20022;-58
2021/10/22 10:55:30;;;;;;;3.13;1.40;;;23.50;50.30;;;;;;4991576;28;20338;-58
2021/10/22 10:58:07;;;;;;;4.20;1.35;;;23.40;50.30;;;;;;4989052;28;20121;-56
2021/10/22 11:00:39;;;;;;;3.05;1.35;;;23.50;50.40;;;;;;4987704;28;20091;-60
2021/10/22 11:03:15;;;;;;;3.03;1.40;;;23.50;50.50;;;;;;4991211;28;20037;-59
2021/10/22 11:05:48;;;;;;;3.80;1.45;;;23.40;50.40;;;;;;4989405;28;20140;-58
2021/10/22 11:08:21;;;;;;;2.88;1.25;;;23.40;50.50;;;;;;4990835;28;20041;-54
2021/10/22 11:11:18;;;;;;;2.75;1.10;;;23.40;50.50;;;;;;4983549;28;20065;-58
2021/10/22 11:13:54;;;;;;;3.30;1.30;;;23.40;50.60;;;;;;4984923;28;20069;-61
2021/10/22 11:16:22;;;;;;;3.58;1.42;;;23.40;50.60;;;;;;4985825;28;20022;-54
2021/10/22 11:19:08;;;;;;;3.13;1.30;;;23.40;50.60;;;;;;4981097;28;20502;-60
2021/10/22 11:21:36;;;;;;;3.70;1.45;;;23.40;50.70;;;;;;4984231;28;20043;-58
2021/10/22 11:24:04;;;;;;;3.67;1.45;;;23.40;50.70;;;;;;4980143;28;20038;-56
2021/10/22 11:26:31;;;;;;;4.13;1.33;;;23.40;50.70;;;;;;4987079;28;20122;-54
2021/10/22 11:28:59;;;;;;;2.08;1.20;;;23.40;50.80;;;;;;4985121;28;20034;-59
2021/10/22 11:31:39;;;;;;;2.88;1.23;;;23.40;50.80;;;;;;4982793;28;20089;-52
2021/10/22 11:34:15;;;;;;;2.85;1.20;;;23.40;50.80;;;;;;4975668;28;20038;-58
2021/10/22 11:36:53;;;;;;;2.53;1.23;;;23.40;50.80;;;;;;4987633;28;20129;-58
2021/10/22 11:39:31;;;;;;;4.22;1.50;;;23.40;50.80;;;;;;4983265;28;20046;-58
2021/10/22 11:42:06;;;;;;;3.72;1.20;;;23.40;50.90;;;;;;4984279;28;20029;-61
2021/10/22 11:44:43;;;;;;;3.08;1.35;;;23.40;50.90;;;;;;4983102;28;20591;-54
2021/10/22 11:47:09;;;;;;;3.72;1.20;;;23.30;50.80;;;;;;4983618;28;20066;-59
2021/10/22 11:49:37;;;;;;;5.63;1.30;;;23.30;50.90;;;;;;4983759;28;20133;-56
2021/10/22 11:52:07;;;;;;;3.25;1.30;;;23.30;50.90;;;;;;4981015;28;20082;-59
2021/10/22 11:54:39;;;;;;;3.15;1.40;;;23.30;50.90;;;;;;4986589;28;20028;-54
2021/10/22 11:57:13;;;;;;;2.40;1.20;;;23.30;50.90;;;;;;4992742;28;20455;-56
2021/10/22 11:59:52;;;;;;;3.17;1.30;;;23.30;51.00;;;;;;4984603;28;20030;-58
2021/10/22 12:02:19;;;;;;;3.57;1.27;;;23.30;51.00;;;;;;4982962;28;20185;-58
2021/10/22 12:04:46;;;;;;;3.47;1.13;;;23.30;50.90;;;;;;4982725;28;20041;-58
2021/10/22 12:07:12;;;;;;;2.13;1.08;;;23.30;51.00;;;;;;4982664;28;20438;-59
2021/10/22 12:09:40;;;;;;;2.35;1.10;;;23.30;51.00;;;;;;4980516;28;20038;-59
2021/10/22 12:12:12;;;;;;;3.05;1.00;;;23.30;51.00;;;;;;4981931;28;20026;-59
2021/10/22 12:14:49;;;;;;;3.50;1.20;;;23.30;51.00;;;;;;4978615;28;20027;-53
2021/10/22 12:17:25;;;;;;;2.45;1.20;;;23.30;51.00;;;;;;4980449;28;20034;-56
2021/10/22 12:19:53;;;;;;;2.63;1.10;;;23.30;51.00;;;;;;4982699;28;20960;-61
2021/10/22 12:22:33;;;;;;;3.17;1.35;;;23.30;51.00;;;;;;4980616;28;20054;-58
2021/10/22 12:25:02;;;;;;;3.78;1.10;;;23.30;51.00;;;;;;4984496;28;20721;-58
2021/10/22 12:27:29;;;;;;;3.00;1.17;;;23.30;51.00;;;;;;4981783;28;20019;-58
2021/10/22 12:30:02;;;;;;;2.20;1.10;;;23.40;51.00;;;;;;4990650;28;20730;-60
2021/10/22 12:32:28;;;;;;;2.80;1.10;;;23.30;51.00;;;;;;4978461;28;20052;-59
2021/10/22 12:34:54;;;;;;;2.85;1.17;;;23.30;51.00;;;;;;4982876;28;20049;-56
2021/10/22 12:37:31;;;;;;;2.60;1.13;;;23.30;51.00;;;;;;4983135;28;20027;-54
2021/10/22 12:39:56;;;;;;;1.70;0.93;;;23.30;51.00;;;;;;4984517;28;20038;-53
2021/10/22 12:42:26;;;;;;;2.95;1.27;;;23.30;50.90;;;;;;4983962;28;20040;-59
2021/10/22 12:45:10;;;;;;;;;;;23.30;50.90;;;;;;4980768;28;20390;-55
2021/10/22 12:47:40;;;;;;;4.22;0.98;;;23.40;51.30;;;;;;4981655;28;19985;-60
2021/10/22 12:50:06;;;;;;;2.60;1.20;;;23.40;51.40;;;;;;4985352;28;20037;-59
2021/10/22 12:52:32;;;;;;;2.58;1.00;;;23.30;50.80;;;;;;4984071;28;20504;-59
2021/10/22 12:54:58;;;;;;;2.20;0.90;;;23.40;51.00;;;;;;4985798;28;20109;-58
2021/10/22 12:57:25;;;;;;;2.05;0.95;;;23.40;50.90;;;;;;4986049;28;20035;-58
2021/10/22 12:59:53;;;;;;;1.77;1.00;;;23.40;50.80;;;;;;4986627;28;20084;-59
2021/10/22 13:02:32;;;;;;;3.47;1.00;;;23.40;50.80;;;;;;4984637;28;20056;-59